Time;durP1;ratioP1;P1;durP2;ratioP2;P2;SDS_P1;SDS_P2;PMS_P1;PMS_P2;Temp;Humidity;BMP_temperature;BMP_pressure;BME280_temperature;BME280_humidity;BME280_pressure;Samples;Min_cycle;Max_cycle;Signal;HPM_P1;HPM_P2
2022/06/23 00:01:06;;;;;;;;;24.67;24.67;29.50;40.80;;;;;;5076205;28;9536;-78
2022/06/23 00:03:35;;;;;;;;;20.67;20.67;29.40;41.20;;;;;;5075529;28;8774;-78
2022/06/23 00:06:04;;;;;;;;;21.00;21.00;29.30;41.50;;;;;;5058968;28;8765;-77
2022/06/23 00:08:30;;;;;;;;;23.33;23.33;29.30;41.60;;;;;;5060103;28;8810;-77
2022/06/23 00:11:00;;;;;;;;;27.00;27.00;29.30;41.80;;;;;;5088095;28;8869;-77
2022/06/23 00:13:36;;;;;;;;;28.67;28.67;29.30;42.20;;;;;;5080164;28;8810;-77
2022/06/23 00:16:04;;;;;;;;;33.00;32.00;29.40;42.70;;;;;;5074471;28;8884;-79
2022/06/23 00:18:38;;;;;;;;;29.00;29.00;29.30;43.20;;;;;;5075245;28;8962;-77
2022/06/23 00:21:26;;;;;;;;;32.67;31.67;29.30;43.60;;;;;;5075466;28;8905;-79
2022/06/23 00:24:01;;;;;;;;;29.33;29.33;29.30;43.60;;;;;;5075187;28;8738;-76
2022/06/23 00:26:31;;;;;;;;;33.67;32.33;29.30;43.80;;;;;;5075441;28;8827;-79
2022/06/23 00:29:16;;;;;;;;;29.67;29.67;29.20;43.80;;;;;;5074992;28;8751;-77
2022/06/23 00:31:45;;;;;;;;;28.33;28.33;29.20;43.60;;;;;;5074986;28;8829;-78
2022/06/23 00:34:25;;;;;;;;;28.33;28.33;29.10;43.50;;;;;;5074980;28;8754;-79
2022/06/23 00:36:54;;;;;;;;;29.67;29.67;29.10;43.60;;;;;;5074753;28;8762;-77
2022/06/23 00:39:33;;;;;;;;;28.67;28.67;29.20;43.50;;;;;;5075166;28;8762;-79
2022/06/23 00:41:59;;;;;;;;;27.67;27.33;29.30;43.30;;;;;;5074842;28;8782;-78
2022/06/23 00:44:43;;;;;;;;;31.00;30.33;29.20;43.50;;;;;;5074933;28;8778;-80
2022/06/23 00:47:17;;;;;;;;;30.33;30.33;29.40;43.40;;;;;;5074819;28;8792;-79
2022/06/23 00:49:48;;;;;;;;;32.33;30.67;29.50;43.00;;;;;;5074792;28;8792;-79
2022/06/23 00:52:24;;;;;;;;;33.67;32.33;29.50;43.00;;;;;;5075553;28;8919;-79
2022/06/23 00:54:56;;;;;;;;;37.00;34.00;29.60;42.70;;;;;;5078572;28;8773;-75
2022/06/23 00:57:35;;;;;;;;;36.67;33.67;29.60;43.20;;;;;;5075061;28;8770;-77
2022/06/23 01:00:20;;;;;;;;;38.67;34.33;29.50;45.80;;;;;;5074686;28;8885;-78
2022/06/23 01:03:01;;;;;;;;;38.67;35.33;29.50;47.00;;;;;;5074721;28;8762;-78
2022/06/23 01:05:55;;;;;;;;;43.00;37.33;29.50;48.40;;;;;;5074455;28;8873;-79
2022/06/23 01:08:43;;;;;;;;;42.33;37.33;29.40;48.90;;;;;;5074462;28;9014;-78
2022/06/23 01:11:27;;;;;;;;;30.33;29.33;29.30;49.30;;;;;;5074631;28;9632;-80
2022/06/23 01:14:17;;;;;;;;;40.00;36.00;29.20;49.90;;;;;;5074321;28;8778;-77
2022/06/23 01:16:48;;;;;;;;;42.00;37.67;29.10;50.90;;;;;;5074346;28;8841;-76
2022/06/23 01:19:48;;;;;;;;;39.67;36.00;29.10;50.00;;;;;;5074072;28;8910;-79
2022/06/23 01:22:42;;;;;;;;;22.67;22.67;27.30;52.50;;;;;;5074828;28;8783;-78
2022/06/23 01:25:35;;;;;;;;;34.33;32.33;25.60;54.70;;;;;;5077254;28;8816;-78
2022/06/23 01:28:16;;;;;;;;;25.33;25.33;24.80;61.40;;;;;;5091062;28;8809;-79
2022/06/23 01:31:19;;;;;;;;;32.33;31.00;25.30;62.70;;;;;;5093323;28;8787;-78
2022/06/23 01:34:07;;;;;;;;;31.00;29.33;25.70;62.40;;;;;;5098845;28;8783;-79
2022/06/23 01:36:46;;;;;;;;;26.33;26.33;25.10;65.30;;;;;;5098630;28;8852;-80
2022/06/23 01:39:43;;;;;;;;;16.67;16.67;25.50;63.60;;;;;;5098936;28;8780;-80
2022/06/23 01:42:27;;;;;;;;;20.33;20.33;26.00;62.20;;;;;;5098504;28;8866;-79
2022/06/23 01:45:17;;;;;;;;;31.67;30.67;26.10;61.60;;;;;;5098713;28;8889;-79
2022/06/23 01:47:58;;;;;;;;;30.33;30.00;26.40;60.10;;;;;;5098397;28;8766;-78
2022/06/23 01:50:39;;;;;;;;;26.00;26.00;26.10;60.20;;;;;;5098320;28;8803;-80
2022/06/23 01:53:17;;;;;;;;;30.33;30.33;26.30;60.60;;;;;;5098466;28;9452;-78
2022/06/23 01:55:51;;;;;;;;;22.33;22.33;26.10;60.30;;;;;;5098413;28;8818;-80
2022/06/23 01:58:21;;;;;;;;;25.00;25.00;26.10;60.90;;;;;;5098024;28;8791;-80
2022/06/23 02:00:53;;;;;;;;;20.33;20.33;26.00;60.60;;;;;;5098083;28;8767;-80
2022/06/23 02:03:25;;;;;;;;;21.33;21.33;26.00;60.80;;;;;;5098100;28;8852;-78
2022/06/23 02:06:05;;;;;;;;;26.33;26.33;26.40;59.40;;;;;;5098043;28;8760;-80
2022/06/23 02:08:40;;;;;;;;;29.67;29.67;26.60;58.40;;;;;;5098135;28;8799;-79
2022/06/23 02:11:29;;;;;;;;;21.67;21.67;26.60;58.00;;;;;;5097946;28;8799;-78
2022/06/23 02:14:13;;;;;;;;;22.33;22.33;26.70;58.60;;;;;;5097892;28;8806;-79
2022/06/23 02:16:48;;;;;;;;;21.00;20.33;26.90;58.20;;;;;;5081916;28;8756;-80
2022/06/23 02:19:40;;;;;;;;;24.67;24.67;27.00;58.00;;;;;;5097658;28;8787;-80
2022/06/23 02:22:38;;;;;;;;;14.33;14.33;26.80;57.90;;;;;;5097772;28;8858;-80
2022/06/23 02:25:12;;;;;;;;;21.33;21.33;26.70;58.00;;;;;;5097919;28;8788;-80
2022/06/23 02:28:00;;;;;;;;;24.33;24.33;26.90;57.80;;;;;;5097808;28;8772;-78
2022/06/23 02:30:40;;;;;;;;;26.00;26.00;27.00;57.80;;;;;;5098062;28;8759;-79
2022/06/23 02:33:11;;;;;;;;;22.00;22.00;26.90;56.60;;;;;;5079437;28;8799;-80
2022/06/23 02:35:58;;;;;;;;;24.00;24.00;26.80;57.80;;;;;;5097746;28;8776;-78
2022/06/23 02:38:50;;;;;;;;;24.67;24.67;26.60;57.90;;;;;;5082310;28;8940;-79
2022/06/23 02:41:18;;;;;;;;;24.67;24.67;26.60;57.80;;;;;;5086314;28;8758;-78
2022/06/23 02:44:18;;;;;;;;;24.67;24.67;26.80;57.20;;;;;;5077310;28;9202;-78
2022/06/23 02:46:56;;;;;;;;;25.67;25.67;26.80;56.90;;;;;;5077193;28;8884;-79
2022/06/23 02:49:43;;;;;;;;;19.00;19.00;26.60;57.20;;;;;;5077449;28;8758;-79
2022/06/23 02:52:20;;;;;;;;;27.67;27.67;26.60;57.10;;;;;;5076906;28;8790;-78
2022/06/23 02:55:01;;;;;;;;;28.33;28.33;26.80;56.80;;;;;;5077196;28;8765;-78
2022/06/23 02:57:26;;;;;;;;;27.67;27.67;27.00;57.30;;;;;;5077067;28;8762;-81
2022/06/23 03:00:15;;;;;;;;;28.00;28.00;27.10;57.00;;;;;;5077180;28;9424;-79
2022/06/23 03:02:48;;;;;;;;;30.67;30.67;27.20;56.70;;;;;;5076970;28;8754;-80
2022/06/23 03:05:22;;;;;;;;;39.33;36.00;27.30;56.50;;;;;;5076785;28;8774;-79
2022/06/23 03:08:03;;;;;;;;;24.33;24.33;26.90;57.20;;;;;;5076865;28;8805;-78
2022/06/23 03:10:48;;;;;;;;;31.00;31.00;26.60;59.00;;;;;;5076789;28;8758;-79
2022/06/23 03:13:19;;;;;;;;;29.33;29.33;26.60;58.90;;;;;;5076392;28;8858;-79
2022/06/23 03:16:12;;;;;;;;;32.33;31.33;26.80;58.50;;;;;;5076631;28;9435;-78
2022/06/23 03:19:02;;;;;;;;;31.00;30.33;27.00;57.40;;;;;;5076307;28;8792;-80
2022/06/23 03:21:43;;;;;;;;;24.33;24.33;27.20;56.40;;;;;;5076442;28;8864;-81
2022/06/23 03:24:31;;;;;;;;;27.33;27.00;26.70;55.80;;;;;;5076227;28;8754;-78
2022/06/23 03:27:11;;;;;;;;;26.67;26.67;26.10;58.50;;;;;;5076596;28;9478;-80
2022/06/23 03:30:05;;;;;;;;;37.33;34.67;26.40;58.50;;;;;;5076529;28;9498;-80
2022/06/23 03:32:48;;;;;;;;;39.33;35.33;26.70;57.90;;;;;;5075312;28;9547;-79
2022/06/23 03:35:27;;;;;;;;;37.33;34.33;26.90;58.30;;;;;;5076136;28;8766;-79
2022/06/23 03:38:05;;;;;;;;;34.33;33.00;27.10;57.40;;;;;;5076359;28;9471;-79
2022/06/23 03:43:58;;;;;;;;;39.00;35.00;27.30;57.00;;;;;;5090226;28;9422;-80
2022/06/23 03:46:31;;;;;;;;;34.67;32.67;27.10;55.80;;;;;;5069299;28;8983;-80
2022/06/23 03:49:37;;;;;;;;;38.33;35.33;27.10;56.70;;;;;;5075723;28;8754;-78
2022/06/23 03:52:22;;;;;;;;;36.00;33.67;27.10;56.70;;;;;;5075978;28;8806;-78
2022/06/23 03:54:59;;;;;;;;;44.33;39.00;27.20;57.70;;;;;;5075974;28;9479;-78
2022/06/23 03:57:42;;;;;;;;;40.67;36.33;27.20;56.90;;;;;;5075928;28;8762;-79
2022/06/23 04:00:24;;;;;;;;;33.00;32.00;27.30;56.60;;;;;;5075796;28;8858;-80
2022/06/23 04:03:03;;;;;;;;;36.67;33.67;27.30;55.60;;;;;;5075777;28;9524;-80
2022/06/23 04:05:54;;;;;;;;;38.00;35.00;27.30;56.20;;;;;;5075332;28;8897;-79
2022/06/23 04:08:20;;;;;;;;;32.67;31.67;27.40;56.10;;;;;;5060197;28;8820;-80
2022/06/23 04:10:46;;;;;;;;;36.00;34.00;27.50;56.10;;;;;;5075248;28;8851;-80
2022/06/23 04:13:21;;;;;;;;;35.00;33.00;27.50;55.80;;;;;;5075462;28;8782;-79
2022/06/23 04:15:49;;;;;;;;;36.33;34.00;27.50;54.90;;;;;;5075296;28;8766;-78
2022/06/23 04:18:24;;;;;;;;;32.00;31.00;27.50;54.30;;;;;;5075040;28;8931;-79
2022/06/23 04:20:59;;;;;;;;;30.67;30.33;27.70;53.60;;;;;;5075449;28;8881;-80
2022/06/23 04:23:33;;;;;;;;;31.33;30.33;27.70;53.50;;;;;;5075357;28;8761;-80
2022/06/23 04:26:11;;;;;;;;;32.67;31.67;27.70;53.70;;;;;;5075108;28;8770;-79
2022/06/23 04:28:45;;;;;;;;;32.33;30.67;27.30;54.50;;;;;;5075265;28;8864;-79
2022/06/23 04:31:34;;;;;;;;;34.33;33.33;27.30;55.20;;;;;;5075002;28;8761;-78
2022/06/23 04:34:02;;;;;;;;;35.33;33.00;27.30;55.50;;;;;;5074390;28;8839;-79
2022/06/23 04:36:31;;;;;;;;;33.33;32.00;27.30;55.10;;;;;;5074893;28;8765;-79
2022/06/23 04:39:19;;;;;;;;;37.33;34.33;27.40;54.60;;;;;;5078555;28;8812;-78
2022/06/23 04:41:50;;;;;;;;;38.00;35.00;27.60;54.40;;;;;;5084323;28;8807;-79
2022/06/23 04:44:26;;;;;;;;;35.67;34.00;27.60;53.80;;;;;;5087970;28;8783;-79
2022/06/23 04:47:07;;;;;;;;;37.00;34.67;27.60;55.20;;;;;;5089718;28;8796;-78
2022/06/23 04:49:48;;;;;;;;;43.33;38.33;27.60;54.90;;;;;;5094855;28;9563;-78
2022/06/23 04:52:32;;;;;;;;;38.33;35.00;27.50;55.60;;;;;;5094854;28;8797;-80
2022/06/23 04:55:25;;;;;;;;;38.33;35.33;27.40;56.10;;;;;;5094810;28;8773;-80
2022/06/23 04:57:56;;;;;;;;;39.00;35.67;27.30;55.90;;;;;;5094788;28;8766;-81
2022/06/23 05:00:30;;;;;;;;;44.33;38.33;27.40;55.20;;;;;;5094733;28;8774;-79
2022/06/23 05:03:12;;;;;;;;;40.33;36.67;27.50;54.90;;;;;;5094886;28;8758;-79
2022/06/23 05:05:38;;;;;;;;;39.67;36.00;27.60;55.20;;;;;;5095011;28;8754;-77
2022/06/23 05:08:18;;;;;;;;;45.00;38.00;27.70;56.10;;;;;;5085297;28;9821;-79
2022/06/23 05:10:48;;;;;;;;;46.00;39.33;27.90;56.10;;;;;;5087651;28;8794;-79
2022/06/23 05:13:25;;;;;;;;;43.00;38.00;28.00;55.60;;;;;;5086271;28;8839;-78
2022/06/23 05:16:05;;;;;;;;;39.67;35.33;28.00;54.90;;;;;;5093287;28;9420;-77
2022/06/23 05:18:46;;;;;;;;;35.33;33.33;27.90;54.20;;;;;;5094426;28;8812;-77
2022/06/23 05:21:37;;;;;;;;;38.00;35.00;28.00;52.80;;;;;;5094520;28;8789;-77
2022/06/23 05:24:08;;;;;;;;;43.33;38.33;28.10;52.80;;;;;;5094738;28;8788;-77
2022/06/23 05:26:39;;;;;;;;;38.67;34.33;28.10;52.10;;;;;;5094540;28;8753;-77
2022/06/23 05:29:24;;;;;;;;;35.00;33.00;28.20;52.70;;;;;;5094310;28;8796;-77
2022/06/23 05:31:56;;;;;;;;;36.33;34.33;28.20;51.90;;;;;;5093372;28;8848;-77
2022/06/23 05:34:27;;;;;;;;;38.67;35.67;28.20;53.50;;;;;;5094671;28;8777;-77
2022/06/23 05:37:04;;;;;;;;;43.67;38.33;28.20;52.40;;;;;;5094165;28;8742;-76
2022/06/23 05:40:13;;;;;;;;;37.33;34.33;28.40;52.70;;;;;;5094366;28;8746;-79
2022/06/23 05:42:45;;;;;;;;;36.00;34.00;28.50;51.70;;;;;;5093647;28;8800;-80
2022/06/23 05:45:23;;;;;;;;;46.33;40.33;28.50;52.40;;;;;;5094406;28;8750;-81
2022/06/23 05:47:49;;;;;;;;;42.67;36.67;28.50;52.90;;;;;;5094570;28;8778;-79
2022/06/23 05:50:28;;;;;;;;;42.00;37.00;28.60;52.60;;;;;;5094483;28;8754;-81
2022/06/23 05:53:43;;;;;;;;;40.33;36.33;28.60;52.70;;;;;;5094200;28;8841;-80
2022/06/23 05:56:27;;;;;;;;;39.33;36.00;28.60;52.00;;;;;;5089382;28;8774;-79
2022/06/23 05:59:06;;;;;;;;;41.33;36.67;28.70;51.20;;;;;;5094936;28;8769;-80
2022/06/23 06:01:40;;;;;;;;;36.67;34.33;28.80;51.10;;;;;;5094176;28;8776;-81
2022/06/23 06:04:30;;;;;;;;;35.33;33.00;28.90;50.80;;;;;;5094285;28;8800;-77
2022/06/23 06:06:57;;;;;;;;;34.67;32.67;29.00;49.70;;;;;;5094231;28;9475;-78
2022/06/23 06:09:35;;;;;;;;;35.33;33.33;29.10;49.60;;;;;;5093918;28;8776;-78
2022/06/23 06:12:06;;;;;;;;;35.67;32.33;29.30;51.30;;;;;;5093965;28;8793;-78
2022/06/23 06:14:36;;;;;;;;;39.00;35.33;29.40;50.20;;;;;;5096716;28;8829;-78
2022/06/23 06:17:03;;;;;;;;;47.67;41.33;29.50;50.00;;;;;;5098079;28;8757;-78
2022/06/23 06:19:32;;;;;;;;;46.67;40.33;29.60;50.30;;;;;;5097441;28;8808;-76
2022/06/23 06:22:01;;;;;;;;;42.00;37.00;29.60;50.80;;;;;;5097978;28;8918;-78
2022/06/23 06:24:37;;;;;;;;;39.67;35.67;29.30;51.40;;;;;;5097657;28;8839;-76
2022/06/23 06:27:10;;;;;;;;;41.67;37.33;28.70;53.50;;;;;;5097577;28;8830;-81
2022/06/23 06:29:41;;;;;;;;;36.33;34.00;28.90;53.70;;;;;;5097310;28;8825;-80
2022/06/23 06:32:25;;;;;;;;;34.00;32.67;28.80;53.30;;;;;;5097409;28;8785;-81
2022/06/23 06:34:58;;;;;;;;;29.33;28.33;28.70;53.60;;;;;;5097367;28;9491;-81
2022/06/23 06:37:29;;;;;;;;;33.33;32.00;28.70;53.70;;;;;;5097728;28;8817;-82
2022/06/23 06:39:59;;;;;;;;;35.67;33.33;28.90;52.70;;;;;;5097486;28;8834;-81
2022/06/23 06:42:29;;;;;;;;;33.67;32.33;29.00;52.80;;;;;;5097398;28;8770;-80
2022/06/23 06:44:59;;;;;;;;;31.33;30.33;29.20;52.20;;;;;;5097327;28;8761;-80
2022/06/23 06:47:32;;;;;;;;;32.00;31.33;28.70;52.90;;;;;;5097248;28;8762;-77
2022/06/23 06:50:12;;;;;;;;;32.33;31.67;28.70;53.00;;;;;;5097386;28;8769;-75
2022/06/23 06:52:37;;;;;;;;;24.67;24.67;28.20;53.90;;;;;;5097119;28;8790;-74
2022/06/23 06:55:13;;;;;;;;;29.00;29.00;28.00;53.20;;;;;;5096942;28;8838;-75
2022/06/23 06:57:46;;;;;;;;;26.00;26.00;28.20;53.70;;;;;;5096967;28;8761;-73
2022/06/23 07:00:20;;;;;;;;;28.00;28.00;28.70;52.20;;;;;;5096942;28;8734;-73
2022/06/23 07:02:56;;;;;;;;;30.33;30.33;29.00;51.60;;;;;;5097048;28;9399;-73
2022/06/23 07:05:49;;;;;;;;;31.33;30.67;29.20;51.00;;;;;;5097125;28;8789;-73
2022/06/23 07:08:28;;;;;;;;;25.67;25.67;29.10;50.20;;;;;;5097104;28;8796;-73
2022/06/23 07:11:09;;;;;;;;;23.00;23.00;29.10;50.30;;;;;;5096816;28;8769;-73
2022/06/23 07:13:39;;;;;;;;;29.67;29.67;29.20;49.70;;;;;;5095569;28;8829;-74
2022/06/23 07:16:35;;;;;;;;;27.67;27.67;29.00;49.80;;;;;;5096655;28;8765;-74
2022/06/23 07:19:00;;;;;;;;;25.33;25.33;28.60;50.30;;;;;;5095085;28;9448;-78
2022/06/23 07:21:49;;;;;;;;;28.33;28.33;29.10;50.60;;;;;;5096587;28;8854;-78
2022/06/23 07:24:17;;;;;;;;;27.33;27.33;29.50;50.10;;;;;;5087764;28;8889;-77
2022/06/23 07:27:07;;;;;;;;;23.33;23.33;29.30;49.80;;;;;;5096316;28;8773;-78
2022/06/23 07:29:39;;;;;;;;;25.33;25.33;29.00;49.10;;;;;;5096421;28;8777;-77
2022/06/23 07:32:13;;;;;;;;;27.33;27.33;29.10;49.80;;;;;;5096008;28;8809;-77
2022/06/23 07:34:44;;;;;;;;;26.67;26.67;29.20;50.50;;;;;;5095876;28;8787;-75
2022/06/23 07:37:41;;;;;;;;;26.67;26.67;29.00;49.90;;;;;;5096289;28;8792;-79
2022/06/23 07:40:08;;;;;;;;;24.67;24.67;28.90;50.60;;;;;;5095396;28;8762;-77
2022/06/23 07:42:36;;;;;;;;;25.00;25.00;28.80;50.90;;;;;;5096171;28;8785;-80
2022/06/23 07:45:09;;;;;;;;;27.00;27.00;28.90;50.00;;;;;;5096193;28;8766;-78
2022/06/23 07:47:35;;;;;;;;;27.33;27.33;29.00;50.00;;;;;;5096268;28;8765;-79
2022/06/23 07:50:02;;;;;;;;;26.33;25.67;29.10;49.20;;;;;;5095814;28;8770;-78
2022/06/23 07:52:28;;;;;;;;;23.00;23.00;29.40;49.00;;;;;;5095730;28;8825;-79
2022/06/23 07:54:54;;;;;;;;;27.00;27.00;29.60;48.70;;;;;;5095600;28;8823;-78
2022/06/23 07:57:20;;;;;;;;;26.00;26.00;30.00;47.90;;;;;;5095783;28;8804;-79
2022/06/23 07:59:58;;;;;;;;;21.67;21.67;29.90;47.30;;;;;;5095990;28;8866;-79
2022/06/23 08:02:26;;;;;;;;;25.00;25.00;30.00;47.70;;;;;;5095645;28;8754;-79
2022/06/23 08:05:06;;;;;;;;;24.33;24.33;29.70;49.00;;;;;;5095726;28;8774;-79
2022/06/23 08:07:34;;;;;;;;;28.00;28.00;30.00;48.00;;;;;;5095673;28;8798;-78
2022/06/23 08:10:26;;;;;;;;;20.00;20.00;30.50;46.60;;;;;;5095530;28;8825;-79
2022/06/23 08:13:01;;;;;;;;;26.67;26.67;30.50;46.30;;;;;;5095683;28;9542;-78
2022/06/23 08:19:01;;;;;;;;;21.00;21.00;30.50;45.10;;;;;;5095280;28;8841;-78
2022/06/23 08:21:34;;;;;;;;;24.33;24.33;30.30;45.30;;;;;;5095815;28;8792;-80
2022/06/23 08:24:15;;;;;;;;;18.67;18.67;30.10;44.90;;;;;;5095700;28;8769;-80
2022/06/23 08:26:47;;;;;;;;;14.67;14.67;30.40;45.00;;;;;;5095346;28;8770;-77
2022/06/23 08:29:17;;;;;;;;;23.33;23.33;30.80;44.50;;;;;;5095524;28;11624;-80
2022/06/23 08:31:43;;;;;;;;;17.67;17.67;30.90;43.60;;;;;;5095533;28;8769;-79
2022/06/23 08:34:09;;;;;;;;;21.00;20.00;31.10;43.40;;;;;;5095172;28;8782;-79
2022/06/23 08:36:51;;;;;;;;;21.67;21.67;31.10;43.10;;;;;;5094387;28;8842;-78
2022/06/23 08:39:30;;;;;;;;;17.00;17.00;31.10;42.40;;;;;;5094821;28;8770;-74
2022/06/23 08:42:05;;;;;;;;;20.00;20.00;31.30;42.40;;;;;;5095287;28;8782;-73
2022/06/23 08:44:52;;;;;;;;;19.00;19.00;31.60;42.00;;;;;;5094902;28;8766;-73
2022/06/23 08:47:36;;;;;;;;;17.33;17.33;31.90;41.40;;;;;;5095153;28;8774;-74
2022/06/23 08:50:19;;;;;;;;;14.33;14.33;31.90;40.20;;;;;;5094673;28;11620;-75
2022/06/23 08:53:07;;;;;;;;;18.00;18.00;31.80;40.60;;;;;;5094816;28;12242;-73
2022/06/23 08:56:11;;;;;;;;;17.33;17.33;32.20;40.10;;;;;;5094592;28;11484;-75
2022/06/23 08:58:50;;;;;;;;;16.67;16.67;32.10;39.40;;;;;;5094652;28;11478;-74
2022/06/23 09:01:23;;;;;;;;;18.00;18.00;32.10;39.60;;;;;;5094562;28;11461;-76
2022/06/23 09:03:54;;;;;;;;;16.67;16.67;31.80;40.30;;;;;;5094759;28;11461;-74
2022/06/23 09:06:55;;;;;;;;;16.00;16.00;32.00;40.50;;;;;;5094433;28;11459;-75
2022/06/23 09:09:36;;;;;;;;;18.00;18.00;31.80;41.30;;;;;;5031958;28;11427;-73
2022/06/23 09:12:10;;;;;;;;;17.00;17.00;32.40;40.30;;;;;;5032139;28;11474;-76
2022/06/23 09:15:01;;;;;;;;;19.33;19.33;32.90;38.80;;;;;;5032262;28;11484;-75
2022/06/23 09:17:48;;;;;;;;;10.67;10.67;32.80;38.40;;;;;;5031918;28;11565;-76
2022/06/23 09:20:29;;;;;;;;;17.33;17.33;32.60;39.20;;;;;;5032056;28;11456;-75
2022/06/23 09:23:32;;;;;;;;;18.33;18.33;32.80;39.60;;;;;;5032098;28;12078;-76
2022/06/23 09:26:22;;;;;;;;;18.00;18.00;32.70;39.90;;;;;;4953849;28;11686;-75
2022/06/23 09:28:56;;;;;;;;;19.00;19.00;32.80;39.00;;;;;;5029943;28;11510;-77
2022/06/23 09:32:01;;;;;;;;;19.67;19.67;32.90;39.80;;;;;;5015339;28;11423;-72
2022/06/23 09:34:45;;;;;;;;;18.33;18.33;32.70;39.90;;;;;;5018362;28;11483;-74
2022/06/23 09:37:28;;;;;;;;;18.00;18.00;32.50;40.60;;;;;;5031717;28;11453;-74
2022/06/23 09:40:00;;;;;;;;;19.00;19.00;32.40;41.60;;;;;;5031978;28;11478;-73
2022/06/23 09:42:44;;;;;;;;;14.33;14.33;33.10;40.10;;;;;;5031817;28;11497;-74
2022/06/23 09:45:24;;;;;;;;;16.67;16.67;33.40;38.00;;;;;;5068163;28;11463;-75
2022/06/23 09:48:09;;;;;;;;;18.67;18.67;33.70;37.20;;;;;;5095850;28;11544;-75
2022/06/23 09:50:46;;;;;;;;;15.67;15.67;34.00;36.60;;;;;;5098330;28;11484;-75
2022/06/23 09:53:32;;;;;;;;;14.00;14.00;33.60;37.50;;;;;;5098049;28;11498;-77
2022/06/23 09:56:10;;;;;;;;;15.00;15.00;33.70;37.00;;;;;;5098687;28;11470;-81
2022/06/23 09:59:11;;;;;;;;;17.33;17.33;33.60;37.20;;;;;;5098007;28;11467;-72
2022/06/23 10:01:40;;;;;;;;;14.33;14.33;33.30;38.00;;;;;;5098064;28;11488;-75
2022/06/23 10:04:37;;;;;;;;;18.33;18.33;33.30;38.00;;;;;;5097869;28;11438;-76
2022/06/23 10:07:10;;;;;;;;;16.33;16.33;33.30;38.60;;;;;;5097791;28;11450;-75
2022/06/23 10:10:20;;;;;;;;;16.00;16.00;33.60;36.90;;;;;;5098035;28;11570;-75
2022/06/23 10:12:58;;;;;;;;;16.33;16.33;33.70;37.10;;;;;;5096629;28;11523;-76
2022/06/23 10:15:54;;;;;;;;;17.00;17.00;33.80;36.60;;;;;;5097972;28;11475;-77
2022/06/23 10:18:30;;;;;;;;;13.67;13.67;33.90;36.20;;;;;;5097496;28;11510;-77
2022/06/23 10:21:19;;;;;;;;;13.67;13.67;34.10;35.00;;;;;;5097674;28;11453;-75
2022/06/23 10:24:13;;;;;;;;;18.67;18.67;34.40;35.20;;;;;;5034861;28;12155;-75
2022/06/23 10:26:48;;;;;;;;;17.00;17.00;34.10;34.70;;;;;;5035125;28;11519;-74
2022/06/23 10:29:23;;;;;;;;;17.33;17.33;34.10;33.60;;;;;;5035053;28;11542;-74
2022/06/23 10:32:10;;;;;;;;;17.00;17.00;33.90;34.00;;;;;;5034884;28;11519;-74
2022/06/23 10:34:54;;;;;;;;;14.33;14.33;33.70;35.20;;;;;;5034856;28;11510;-78
2022/06/23 10:37:26;;;;;;;;;14.75;14.75;33.70;35.40;;;;;;5034803;28;11517;-74
2022/06/23 10:40:19;;;;;;;;;13.00;13.00;33.40;36.90;;;;;;5034762;28;12269;-75
2022/06/23 10:42:56;;;;;;;;;17.67;17.67;34.30;36.30;;;;;;5023049;28;11579;-75
2022/06/23 10:45:44;;;;;;;;;16.33;16.33;34.70;34.50;;;;;;5014368;28;11594;-74
2022/06/23 10:48:37;;;;;;;;;18.67;18.67;35.00;34.80;;;;;;5012888;28;11574;-80
2022/06/23 10:51:12;;;;;;;;;17.33;17.33;34.80;34.70;;;;;;5011275;28;11723;-73
2022/06/23 10:53:59;;;;;;;;;17.67;17.67;35.10;34.40;;;;;;5011630;28;11490;-74
2022/06/23 10:56:56;;;;;;;;;17.00;17.00;35.80;33.10;;;;;;5010683;28;12258;-74
2022/06/23 10:59:31;;;;;;;;;15.00;15.00;36.00;31.80;;;;;;5008868;28;12216;-73
2022/06/23 11:02:32;;;;;;;;;14.33;14.33;36.00;31.70;;;;;;5087764;28;11456;-73
2022/06/23 11:05:09;;;;;;;;;14.33;14.33;35.60;31.50;;;;;;5097324;28;11416;-76
2022/06/23 11:08:05;;;;;;;;;15.00;15.00;36.10;32.70;;;;;;5095921;28;11508;-74
2022/06/23 11:10:49;;;;;;;;;17.00;17.00;36.50;32.10;;;;;;5090425;28;11443;-75
2022/06/23 11:13:24;;;;;;;;;13.00;13.00;36.10;31.60;;;;;;5082199;28;11516;-75
2022/06/23 11:16:20;;;;;;;;;15.00;15.00;35.60;33.30;;;;;;5077650;28;12451;-75
2022/06/23 11:19:15;;;;;;;;;17.67;17.67;35.20;32.60;;;;;;5089465;28;11542;-75
2022/06/23 11:21:54;;;;;;;;;16.50;16.50;34.40;33.20;;;;;;5091908;28;11554;-74
2022/06/23 11:24:42;;;;;;;;;16.00;16.00;34.10;35.00;;;;;;5094659;28;11463;-74
2022/06/23 11:27:42;;;;;;;;;14.00;14.00;34.00;34.50;;;;;;5090735;28;11492;-73
2022/06/23 11:30:18;;;;;;;;;15.50;15.50;34.20;35.00;;;;;;5093787;28;11433;-74
2022/06/23 11:33:16;;;;;;;;;16.00;16.00;34.50;34.50;;;;;;5092037;28;11481;-74
2022/06/23 11:35:56;;;;;;;;;14.67;14.67;34.30;34.30;;;;;;5086698;28;12009;-74
2022/06/23 11:38:46;;;;;;;;;21.33;19.67;33.80;35.90;;;;;;5094177;28;11434;-75
2022/06/23 11:41:34;;;;;;;;;16.75;16.75;34.00;35.60;;;;;;5091499;28;12222;-74
2022/06/23 11:44:20;;;;;;;;;18.00;18.00;34.10;35.80;;;;;;5087824;28;11424;-75
2022/06/23 11:46:54;;;;;;;;;19.00;19.00;34.00;35.30;;;;;;5088100;28;11434;-76
2022/06/23 11:49:34;;;;;;;;;17.33;17.33;34.10;36.10;;;;;;5092336;28;11420;-74
2022/06/23 11:52:39;;;;;;;;;15.75;15.75;34.50;35.40;;;;;;5075337;28;11573;-75
2022/06/23 11:55:16;;;;;;;;;16.00;16.00;34.50;35.10;;;;;;5093614;28;11507;-76
2022/06/23 11:58:01;;;;;;;;;15.25;15.25;34.20;35.40;;;;;;5091803;28;11406;-73
2022/06/23 12:00:54;;;;;;;;;15.25;15.25;33.40;36.00;;;;;;5076528;28;11437;-72
2022/06/23 12:03:35;;;;;;;;;17.33;17.33;33.10;37.60;;;;;;5074404;28;11393;-73
2022/06/23 12:06:30;;;;;;;;;15.50;15.50;33.60;37.70;;;;;;5074866;28;11430;-73
2022/06/23 12:09:28;;;;;;;;;16.00;16.00;34.50;36.20;;;;;;5045162;28;12145;-73
2022/06/23 12:11:57;;;;;;;;;18.67;18.67;35.00;34.40;;;;;;5081253;28;12167;-73
2022/06/23 12:14:25;;;;;;;;;13.33;13.33;35.00;34.50;;;;;;5083879;28;11437;-73
2022/06/23 12:16:59;;;;;;;;;17.67;17.67;34.50;35.60;;;;;;5077452;28;11578;-73
2022/06/23 12:19:57;;;;;;;;;13.75;13.75;34.40;35.30;;;;;;5074374;28;11609;-73
2022/06/23 12:22:49;;;;;;;;;17.75;17.75;34.80;34.50;;;;;;5074396;28;11440;-74
2022/06/23 12:25:39;;;;;;;;;15.75;15.75;34.90;35.20;;;;;;5083225;28;11478;-75
2022/06/23 12:28:25;;;;;;;;;16.50;16.50;35.00;35.20;;;;;;5086198;28;12157;-73
2022/06/23 12:31:21;;;;;;;;;14.50;14.50;34.90;34.90;;;;;;5090998;28;11474;-73
2022/06/23 12:34:01;;;;;;;;;14.50;14.50;34.80;34.70;;;;;;5088716;28;11441;-72
2022/06/23 12:36:55;;;;;;;;;13.25;13.25;33.90;35.60;;;;;;5084894;28;11499;-73
2022/06/23 12:39:47;;;;;;;;;14.00;14.00;33.70;35.60;;;;;;5073585;28;11418;-73
2022/06/23 12:42:22;;;;;;;;;13.00;12.50;34.30;35.20;;;;;;5073280;28;11428;-73
2022/06/23 12:44:59;;;;;;;;;12.00;12.00;34.60;34.40;;;;;;5073047;28;11421;-73
2022/06/23 12:47:35;;;;;;;;;14.00;14.00;35.10;33.10;;;;;;5075416;28;11491;-73
2022/06/23 12:50:25;;;;;;;;;12.50;12.50;35.20;33.60;;;;;;5083911;28;11440;-73
2022/06/23 12:52:53;;;;;;;;;13.75;13.75;35.20;33.80;;;;;;5078323;28;12067;-73
2022/06/23 12:55:31;;;;;;;;;14.25;14.25;34.60;32.70;;;;;;5073130;28;12087;-73
2022/06/23 12:58:00;;;;;;;;;12.00;12.00;33.60;34.30;;;;;;5073053;28;11430;-73
2022/06/23 13:00:47;;;;;;;;;14.50;14.50;33.30;35.70;;;;;;5072982;28;11511;-73
2022/06/23 13:03:29;;;;;;;;;12.50;12.50;33.70;35.10;;;;;;5083084;28;11422;-73
2022/06/23 13:06:20;;;;;;;;;11.00;11.00;33.30;34.90;;;;;;5072869;28;11423;-73
2022/06/23 13:09:01;;;;;;;;;15.00;15.00;33.30;35.30;;;;;;5094561;28;11449;-73
2022/06/23 13:11:59;;;;;;;;;12.75;12.75;33.70;35.90;;;;;;5093137;28;11435;-73
2022/06/23 13:14:25;;;;;;;;;15.75;15.75;33.40;35.70;;;;;;5067720;28;11610;-73
2022/06/23 13:17:25;;;;;;;;;12.00;12.00;34.10;36.50;;;;;;5060080;28;11584;-74
2022/06/23 13:20:06;;;;;;;;;15.25;15.25;33.80;35.00;;;;;;5049019;28;8820;-73
2022/06/23 13:22:46;;;;;;;;;15.67;15.67;33.80;34.80;;;;;;5081669;28;11419;-72
2022/06/23 13:25:27;;;;;;;;;14.25;14.25;33.80;35.40;;;;;;5086134;28;11475;-75
2022/06/23 13:27:55;;;;;;;;;13.00;13.00;34.30;35.10;;;;;;5085918;28;11452;-72
2022/06/23 13:30:25;;;;;;;;;13.50;13.50;34.40;34.80;;;;;;5079568;28;11441;-72
2022/06/23 13:33:11;;;;;;;;;12.00;12.00;34.50;33.40;;;;;;5083479;28;11562;-72
2022/06/23 13:35:50;;;;;;;;;13.25;13.25;34.90;34.10;;;;;;5079065;28;11427;-72
2022/06/23 13:38:25;;;;;;;;;13.00;13.00;35.20;33.30;;;;;;5080485;28;11579;-72
2022/06/23 13:40:59;;;;;;;;;12.00;12.00;34.80;32.30;;;;;;5082226;28;12312;-72
2022/06/23 13:43:45;;;;;;;;;15.25;15.25;35.00;33.00;;;;;;5073068;28;11461;-72
2022/06/23 13:46:29;;;;;;;;;12.50;12.50;35.00;34.40;;;;;;5075913;28;11473;-72